Guest
แชร์ หัวข้อ โพสต์โดย อ่าน ตอบ โพสต์ล่าสุด
easymod 1,373 1 10/01/2015 20:40:37
neostar 1,212 3 10/01/2015 20:18:41
Dew 1,348 3 10/01/2015 20:12:09
mrannop1997 815 1 10/01/2015 20:11:19
K6991 746 1 10/01/2015 20:03:30
player 947 1 10/01/2015 20:01:21
tissue_punch 881 1 10/01/2015 20:00:20
kasidit pimsaku... 787 1 10/01/2015 19:58:41
wolfman101 1,591 11 10/01/2015 19:52:56
GopGap09 1,560 2 10/01/2015 18:33:15
sleep_y 662 1 10/01/2015 16:14:14
นายมั่นคง 9,137 91 10/01/2015 15:53:12
sanpasilp 777 0 10/01/2015 14:08:41
yowza 925 1 10/01/2015 12:42:21
kuckic 1,390 3 10/01/2015 12:35:24
templeboy92 1,050 2 10/01/2015 11:17:18
แรมโบ้ 1,399 3 10/01/2015 10:32:06
NamHyun 4,984 12 10/01/2015 08:30:53
jan444 740 3 10/01/2015 02:32:00
akeake 1,429 12 09/01/2015 22:13:58
paopy2iiam 1,027 4 09/01/2015 21:53:39
js007 1,512 5 09/01/2015 20:31:32
manman 1,391 7 09/01/2015 20:14:58
ฝันกลางวัน 3,037 29 09/01/2015 18:20:12
Tonkza 2,767 3 09/01/2015 18:00:50
whowillknow 1,370 11 09/01/2015 16:29:33
guidestick 1,681 5 09/01/2015 15:30:33
Golf442 798 2 09/01/2015 12:48:17
believez 1,024 2 09/01/2015 12:40:01
pokkystr 1,022 3 09/01/2015 10:11:24
FreshlyFromHell 1,089 2 09/01/2015 10:01:04
นายมั่นคง 34,246 83 09/01/2015 07:15:43
abdul 1,790 7 09/01/2015 06:20:08
imyoon 1,097 3 09/01/2015 00:19:26
PS133 1,198 2 08/01/2015 23:55:55
pok 820 1 08/01/2015 23:33:05
แรมโบ้ 809 2 08/01/2015 22:53:29
In Flames 1,340 9 08/01/2015 22:03:51
capocino 1,151 3 08/01/2015 20:41:52
AK Anas 813 5 08/01/2015 20:40:35
Darurma 1,379 7 08/01/2015 17:57:47
Jinchat 1,551 6 08/01/2015 16:11:30
เชิด 992 6 08/01/2015 15:46:07
doramomay 1,356 12 08/01/2015 15:29:12
Thanatos 880 1 08/01/2015 15:11:01
adagio71 1,548 5 08/01/2015 14:14:59
akeake 1,622 4 08/01/2015 12:59:08
imyoon 1,179 3 08/01/2015 09:06:11
Ansa.jw 1,276 6 08/01/2015 07:48:26
pangpondz 802 1 08/01/2015 00:45:37
25,501 - 25,550 of 90,017 items : << 506507508509510511512513514515516 >>

ช่องทางการติดต่ออื่น

  • Munkonggadget
  • Munkonggadget Reviews
  • Munkonggadget Reviews
  • Munkonggadget Contact Us